sensor_id;sensor_type;location;lat;lon;timestamp;P1;durP1;ratioP1;P2;durP2;ratioP2
58621;SDS011;44389;51.578;5.456;2023-06-14T00:00:08;28.23;;;15.85;;
58621;SDS011;44389;51.578;5.456;2023-06-14T00:02:34;29.67;;;15.93;;
58621;SDS011;44389;51.578;5.456;2023-06-14T00:05:00;27.13;;;16.60;;
58621;SDS011;44389;51.578;5.456;2023-06-14T00:07:38;27.58;;;16.20;;
58621;SDS011;44389;51.578;5.456;2023-06-14T00:10:07;30.38;;;16.05;;
58621;SDS011;44389;51.578;5.456;2023-06-14T00:12:33;30.60;;;15.95;;
58621;SDS011;44389;51.578;5.456;2023-06-14T00:14:59;28.10;;;16.58;;
58621;SDS011;44389;51.578;5.456;2023-06-14T00:17:26;32.22;;;15.77;;
58621;SDS011;44389;51.578;5.456;2023-06-14T00:19:55;30.45;;;16.05;;
58621;SDS011;44389;51.578;5.456;2023-06-14T00:22:23;33.92;;;16.35;;
58621;SDS011;44389;51.578;5.456;2023-06-14T00:24:55;25.23;;;15.57;;
58621;SDS011;44389;51.578;5.456;2023-06-14T00:27:21;27.67;;;15.27;;
58621;SDS011;44389;51.578;5.456;2023-06-14T00:29:46;24.05;;;14.88;;
58621;SDS011;44389;51.578;5.456;2023-06-14T00:32:11;28.40;;;15.48;;
58621;SDS011;44389;51.578;5.456;2023-06-14T00:34:37;27.80;;;14.85;;
58621;SDS011;44389;51.578;5.456;2023-06-14T00:37:02;27.33;;;14.70;;
58621;SDS011;44389;51.578;5.456;2023-06-14T00:39:27;29.48;;;14.27;;
58621;SDS011;44389;51.578;5.456;2023-06-14T00:41:53;26.20;;;14.75;;
58621;SDS011;44389;51.578;5.456;2023-06-14T00:44:18;25.02;;;14.00;;
58621;SDS011;44389;51.578;5.456;2023-06-14T00:46:46;27.95;;;14.32;;
58621;SDS011;44389;51.578;5.456;2023-06-14T00:49:12;22.63;;;14.10;;
58621;SDS011;44389;51.578;5.456;2023-06-14T00:51:40;29.27;;;13.77;;
58621;SDS011;44389;51.578;5.456;2023-06-14T00:54:06;28.40;;;13.70;;
58621;SDS011;44389;51.578;5.456;2023-06-14T00:56:31;22.33;;;12.52;;
58621;SDS011;44389;51.578;5.456;2023-06-14T00:58:57;24.80;;;13.02;;
58621;SDS011;44389;51.578;5.456;2023-06-14T01:01:23;24.23;;;13.25;;
58621;SDS011;44389;51.578;5.456;2023-06-14T01:03:49;25.40;;;12.77;;
58621;SDS011;44389;51.578;5.456;2023-06-14T01:06:20;25.23;;;13.38;;
58621;SDS011;44389;51.578;5.456;2023-06-14T01:12:05;24.35;;;12.60;;
58621;SDS011;44389;51.578;5.456;2023-06-14T01:14:36;37.40;;;12.95;;
58621;SDS011;44389;51.578;5.456;2023-06-14T01:17:03;26.08;;;13.55;;
58621;SDS011;44389;51.578;5.456;2023-06-14T01:19:29;23.10;;;12.25;;
58621;SDS011;44389;51.578;5.456;2023-06-14T01:21:56;27.57;;;13.20;;
58621;SDS011;44389;51.578;5.456;2023-06-14T01:24:22;27.42;;;13.27;;
58621;SDS011;44389;51.578;5.456;2023-06-14T01:26:51;31.13;;;14.05;;
58621;SDS011;44389;51.578;5.456;2023-06-14T01:29:21;23.55;;;13.13;;
58621;SDS011;44389;51.578;5.456;2023-06-14T01:31:48;30.15;;;13.27;;
58621;SDS011;44389;51.578;5.456;2023-06-14T01:34:15;28.80;;;13.93;;
58621;SDS011;44389;51.578;5.456;2023-06-14T01:36:41;26.00;;;13.00;;
58621;SDS011;44389;51.578;5.456;2023-06-14T01:39:10;31.58;;;13.43;;
58621;SDS011;44389;51.578;5.456;2023-06-14T01:41:38;25.25;;;12.82;;
58621;SDS011;44389;51.578;5.456;2023-06-14T01:44:05;32.08;;;14.15;;
58621;SDS011;44389;51.578;5.456;2023-06-14T01:46:31;28.90;;;13.07;;
58621;SDS011;44389;51.578;5.456;2023-06-14T01:48:56;31.23;;;12.73;;
58621;SDS011;44389;51.578;5.456;2023-06-14T01:51:21;24.40;;;12.75;;
58621;SDS011;44389;51.578;5.456;2023-06-14T01:53:47;24.88;;;13.20;;
58621;SDS011;44389;51.578;5.456;2023-06-14T01:56:13;27.25;;;13.65;;
58621;SDS011;44389;51.578;5.456;2023-06-14T01:58:38;25.25;;;13.02;;
58621;SDS011;44389;51.578;5.456;2023-06-14T02:01:04;29.40;;;13.20;;
58621;SDS011;44389;51.578;5.456;2023-06-14T02:03:30;27.17;;;12.63;;
58621;SDS011;44389;51.578;5.456;2023-06-14T02:05:55;29.30;;;12.90;;
58621;SDS011;44389;51.578;5.456;2023-06-14T02:08:21;26.48;;;13.05;;
58621;SDS011;44389;51.578;5.456;2023-06-14T02:10:47;24.65;;;13.20;;
58621;SDS011;44389;51.578;5.456;2023-06-14T02:13:12;25.80;;;13.35;;
58621;SDS011;44389;51.578;5.456;2023-06-14T02:15:38;22.67;;;12.82;;
58621;SDS011;44389;51.578;5.456;2023-06-14T02:18:03;27.42;;;13.48;;
58621;SDS011;44389;51.578;5.456;2023-06-14T02:20:29;25.67;;;12.82;;
58621;SDS011;44389;51.578;5.456;2023-06-14T02:22:55;26.38;;;14.52;;
58621;SDS011;44389;51.578;5.456;2023-06-14T02:25:20;26.55;;;13.30;;
58621;SDS011;44389;51.578;5.456;2023-06-14T02:27:45;26.15;;;13.20;;
58621;SDS011;44389;51.578;5.456;2023-06-14T02:30:11;24.17;;;12.05;;
58621;SDS011;44389;51.578;5.456;2023-06-14T02:32:37;26.08;;;12.40;;
58621;SDS011;44389;51.578;5.456;2023-06-14T02:35:03;27.98;;;12.07;;
58621;SDS011;44389;51.578;5.456;2023-06-14T02:37:29;25.48;;;12.48;;
58621;SDS011;44389;51.578;5.456;2023-06-14T02:39:54;24.98;;;12.68;;
58621;SDS011;44389;51.578;5.456;2023-06-14T02:42:21;39.90;;;13.55;;
58621;SDS011;44389;51.578;5.456;2023-06-14T02:44:46;30.73;;;13.02;;
58621;SDS011;44389;51.578;5.456;2023-06-14T02:47:15;25.55;;;11.95;;
58621;SDS011;44389;51.578;5.456;2023-06-14T02:49:41;33.13;;;13.50;;
58621;SDS011;44389;51.578;5.456;2023-06-14T02:52:06;24.17;;;11.88;;
58621;SDS011;44389;51.578;5.456;2023-06-14T02:54:34;29.40;;;12.77;;
58621;SDS011;44389;51.578;5.456;2023-06-14T02:56:59;26.60;;;12.23;;
58621;SDS011;44389;51.578;5.456;2023-06-14T02:59:24;24.95;;;12.65;;
58621;SDS011;44389;51.578;5.456;2023-06-14T03:01:50;24.13;;;12.00;;
58621;SDS011;44389;51.578;5.456;2023-06-14T03:04:15;31.73;;;12.23;;
58621;SDS011;44389;51.578;5.456;2023-06-14T03:06:41;25.98;;;12.45;;
58621;SDS011;44389;51.578;5.456;2023-06-14T03:09:09;28.40;;;12.50;;
58621;SDS011;44389;51.578;5.456;2023-06-14T03:11:34;27.08;;;12.48;;
58621;SDS011;44389;51.578;5.456;2023-06-14T03:14:00;25.45;;;12.50;;
58621;SDS011;44389;51.578;5.456;2023-06-14T03:16:28;23.13;;;12.57;;
58621;SDS011;44389;51.578;5.456;2023-06-14T03:18:54;23.92;;;12.35;;
58621;SDS011;44389;51.578;5.456;2023-06-14T03:21:20;23.20;;;12.27;;
58621;SDS011;44389;51.578;5.456;2023-06-14T03:23:45;25.35;;;12.35;;
58621;SDS011;44389;51.578;5.456;2023-06-14T03:26:11;26.20;;;12.70;;
58621;SDS011;44389;51.578;5.456;2023-06-14T03:28:40;25.55;;;12.27;;
58621;SDS011;44389;51.578;5.456;2023-06-14T03:31:06;31.92;;;13.23;;
58621;SDS011;44389;51.578;5.456;2023-06-14T03:33:31;23.30;;;13.18;;
58621;SDS011;44389;51.578;5.456;2023-06-14T03:35:57;26.27;;;12.95;;
58621;SDS011;44389;51.578;5.456;2023-06-14T03:38:22;26.85;;;12.90;;
58621;SDS011;44389;51.578;5.456;2023-06-14T03:40:48;25.10;;;12.52;;
58621;SDS011;44389;51.578;5.456;2023-06-14T03:43:13;24.88;;;12.10;;
58621;SDS011;44389;51.578;5.456;2023-06-14T03:45:39;31.38;;;12.30;;
58621;SDS011;44389;51.578;5.456;2023-06-14T03:48:05;18.95;;;11.95;;
58621;SDS011;44389;51.578;5.456;2023-06-14T03:50:31;29.52;;;13.35;;
58621;SDS011;44389;51.578;5.456;2023-06-14T03:52:57;28.52;;;12.63;;
58621;SDS011;44389;51.578;5.456;2023-06-14T03:55:23;29.48;;;12.75;;
58621;SDS011;44389;51.578;5.456;2023-06-14T03:57:50;25.27;;;12.27;;
58621;SDS011;44389;51.578;5.456;2023-06-14T04:00:15;29.92;;;12.15;;
58621;SDS011;44389;51.578;5.456;2023-06-14T04:02:41;28.23;;;12.57;;
58621;SDS011;44389;51.578;5.456;2023-06-14T04:05:06;24.52;;;12.68;;
58621;SDS011;44389;51.578;5.456;2023-06-14T04:07:33;34.07;;;13.30;;
58621;SDS011;44389;51.578;5.456;2023-06-14T04:10:05;26.25;;;12.85;;
58621;SDS011;44389;51.578;5.456;2023-06-14T04:12:31;26.85;;;12.65;;
58621;SDS011;44389;51.578;5.456;2023-06-14T04:14:56;32.33;;;13.30;;
58621;SDS011;44389;51.578;5.456;2023-06-14T04:17:22;29.30;;;12.77;;
58621;SDS011;44389;51.578;5.456;2023-06-14T04:19:47;40.53;;;12.82;;
58621;SDS011;44389;51.578;5.456;2023-06-14T04:22:12;32.38;;;13.27;;
58621;SDS011;44389;51.578;5.456;2023-06-14T04:24:38;32.55;;;13.27;;
58621;SDS011;44389;51.578;5.456;2023-06-14T04:27:03;37.85;;;13.63;;
58621;SDS011;44389;51.578;5.456;2023-06-14T04:29:28;26.75;;;13.13;;
58621;SDS011;44389;51.578;5.456;2023-06-14T04:31:54;32.95;;;13.75;;
58621;SDS011;44389;51.578;5.456;2023-06-14T04:34:23;26.95;;;12.15;;
58621;SDS011;44389;51.578;5.456;2023-06-14T04:36:54;25.63;;;13.25;;
58621;SDS011;44389;51.578;5.456;2023-06-14T04:39:21;38.72;;;13.35;;
58621;SDS011;44389;51.578;5.456;2023-06-14T04:41:47;26.17;;;12.77;;
58621;SDS011;44389;51.578;5.456;2023-06-14T04:44:16;30.05;;;13.43;;
58621;SDS011;44389;51.578;5.456;2023-06-14T04:46:42;28.35;;;12.57;;
58621;SDS011;44389;51.578;5.456;2023-06-14T04:49:14;31.17;;;12.38;;
58621;SDS011;44389;51.578;5.456;2023-06-14T04:51:40;27.42;;;11.98;;
58621;SDS011;44389;51.578;5.456;2023-06-14T04:54:07;22.98;;;11.95;;
58621;SDS011;44389;51.578;5.456;2023-06-14T04:56:38;27.17;;;11.32;;
58621;SDS011;44389;51.578;5.456;2023-06-14T04:59:04;32.13;;;11.82;;
58621;SDS011;44389;51.578;5.456;2023-06-14T05:01:30;27.83;;;11.63;;
58621;SDS011;44389;51.578;5.456;2023-06-14T05:03:59;27.92;;;10.95;;
58621;SDS011;44389;51.578;5.456;2023-06-14T05:06:24;21.20;;;11.07;;
58621;SDS011;44389;51.578;5.456;2023-06-14T05:08:51;24.80;;;10.88;;
58621;SDS011;44389;51.578;5.456;2023-06-14T05:11:16;25.17;;;10.57;;
58621;SDS011;44389;51.578;5.456;2023-06-14T05:13:44;22.65;;;10.57;;
58621;SDS011;44389;51.578;5.456;2023-06-14T05:16:10;27.15;;;11.20;;
58621;SDS011;44389;51.578;5.456;2023-06-14T05:18:36;25.60;;;10.25;;
58621;SDS011;44389;51.578;5.456;2023-06-14T05:21:02;21.88;;;10.70;;
58621;SDS011;44389;51.578;5.456;2023-06-14T05:23:29;25.83;;;11.50;;
58621;SDS011;44389;51.578;5.456;2023-06-14T05:25:55;28.15;;;11.70;;
58621;SDS011;44389;51.578;5.456;2023-06-14T05:28:20;26.20;;;11.40;;
58621;SDS011;44389;51.578;5.456;2023-06-14T05:30:45;27.27;;;10.68;;
58621;SDS011;44389;51.578;5.456;2023-06-14T05:33:11;22.77;;;10.90;;
58621;SDS011;44389;51.578;5.456;2023-06-14T05:35:36;26.13;;;11.10;;
58621;SDS011;44389;51.578;5.456;2023-06-14T05:38:02;23.00;;;11.35;;
58621;SDS011;44389;51.578;5.456;2023-06-14T05:40:28;28.77;;;11.55;;
58621;SDS011;44389;51.578;5.456;2023-06-14T05:42:53;25.63;;;11.43;;
58621;SDS011;44389;51.578;5.456;2023-06-14T05:45:18;29.83;;;11.98;;
58621;SDS011;44389;51.578;5.456;2023-06-14T05:47:44;26.80;;;11.23;;
58621;SDS011;44389;51.578;5.456;2023-06-14T05:50:09;35.90;;;11.65;;
58621;SDS011;44389;51.578;5.456;2023-06-14T05:52:34;25.73;;;11.98;;
58621;SDS011;44389;51.578;5.456;2023-06-14T05:55:01;23.17;;;11.40;;
58621;SDS011;44389;51.578;5.456;2023-06-14T05:57:28;24.08;;;11.55;;
58621;SDS011;44389;51.578;5.456;2023-06-14T05:59:53;21.67;;;11.13;;
58621;SDS011;44389;51.578;5.456;2023-06-14T06:02:18;25.35;;;11.80;;
58621;SDS011;44389;51.578;5.456;2023-06-14T06:04:44;22.35;;;11.20;;
58621;SDS011;44389;51.578;5.456;2023-06-14T06:07:10;23.20;;;11.15;;
58621;SDS011;44389;51.578;5.456;2023-06-14T06:09:35;27.33;;;11.25;;
58621;SDS011;44389;51.578;5.456;2023-06-14T06:12:00;28.75;;;11.30;;
58621;SDS011;44389;51.578;5.456;2023-06-14T06:14:26;28.67;;;11.20;;
58621;SDS011;44389;51.578;5.456;2023-06-14T06:16:51;22.25;;;10.85;;
58621;SDS011;44389;51.578;5.456;2023-06-14T06:19:18;36.20;;;11.83;;
58621;SDS011;44389;51.578;5.456;2023-06-14T06:21:43;33.60;;;11.13;;
58621;SDS011;44389;51.578;5.456;2023-06-14T06:24:08;28.15;;;11.63;;
58621;SDS011;44389;51.578;5.456;2023-06-14T06:26:34;22.42;;;11.10;;
58621;SDS011;44389;51.578;5.456;2023-06-14T06:28:59;18.67;;;11.45;;
58621;SDS011;44389;51.578;5.456;2023-06-14T06:31:25;21.33;;;11.02;;
58621;SDS011;44389;51.578;5.456;2023-06-14T06:33:52;19.95;;;10.52;;
58621;SDS011;44389;51.578;5.456;2023-06-14T06:36:18;18.52;;;9.88;;
58621;SDS011;44389;51.578;5.456;2023-06-14T06:38:45;19.95;;;10.32;;
58621;SDS011;44389;51.578;5.456;2023-06-14T06:41:10;19.58;;;10.25;;
58621;SDS011;44389;51.578;5.456;2023-06-14T06:43:35;20.67;;;9.98;;
58621;SDS011;44389;51.578;5.456;2023-06-14T06:46:01;19.23;;;9.52;;
58621;SDS011;44389;51.578;5.456;2023-06-14T06:48:26;17.83;;;9.05;;
58621;SDS011;44389;51.578;5.456;2023-06-14T06:50:51;21.70;;;10.18;;
58621;SDS011;44389;51.578;5.456;2023-06-14T06:53:17;20.98;;;9.25;;
58621;SDS011;44389;51.578;5.456;2023-06-14T06:55:43;24.63;;;9.80;;
58621;SDS011;44389;51.578;5.456;2023-06-14T06:58:09;24.73;;;9.30;;
58621;SDS011;44389;51.578;5.456;2023-06-14T07:00:34;21.90;;;9.63;;
58621;SDS011;44389;51.578;5.456;2023-06-14T07:03:00;23.30;;;9.65;;
58621;SDS011;44389;51.578;5.456;2023-06-14T07:05:26;20.92;;;9.18;;
58621;SDS011;44389;51.578;5.456;2023-06-14T07:07:51;17.70;;;9.10;;
58621;SDS011;44389;51.578;5.456;2023-06-14T07:10:16;19.70;;;9.32;;
58621;SDS011;44389;51.578;5.456;2023-06-14T07:12:42;20.65;;;9.20;;
58621;SDS011;44389;51.578;5.456;2023-06-14T07:15:07;17.10;;;9.25;;
58621;SDS011;44389;51.578;5.456;2023-06-14T07:17:33;17.20;;;9.13;;
58621;SDS011;44389;51.578;5.456;2023-06-14T07:19:59;23.55;;;8.75;;
58621;SDS011;44389;51.578;5.456;2023-06-14T07:22:25;19.20;;;10.00;;
58621;SDS011;44389;51.578;5.456;2023-06-14T07:24:51;19.00;;;8.88;;
58621;SDS011;44389;51.578;5.456;2023-06-14T07:27:16;24.10;;;9.00;;
58621;SDS011;44389;51.578;5.456;2023-06-14T07:29:42;17.33;;;8.82;;
58621;SDS011;44389;51.578;5.456;2023-06-14T07:32:07;18.40;;;8.30;;
58621;SDS011;44389;51.578;5.456;2023-06-14T07:34:32;17.38;;;8.35;;
58621;SDS011;44389;51.578;5.456;2023-06-14T07:36:58;18.48;;;8.25;;
58621;SDS011;44389;51.578;5.456;2023-06-14T07:39:23;15.60;;;8.52;;
58621;SDS011;44389;51.578;5.456;2023-06-14T07:41:48;30.83;;;8.65;;
58621;SDS011;44389;51.578;5.456;2023-06-14T07:44:14;22.25;;;8.65;;
58621;SDS011;44389;51.578;5.456;2023-06-14T07:46:39;24.83;;;9.23;;
58621;SDS011;44389;51.578;5.456;2023-06-14T07:49:05;18.70;;;7.57;;
58621;SDS011;44389;51.578;5.456;2023-06-14T07:51:30;19.20;;;8.63;;
58621;SDS011;44389;51.578;5.456;2023-06-14T07:53:56;15.88;;;8.30;;
58621;SDS011;44389;51.578;5.456;2023-06-14T07:56:21;15.77;;;7.60;;
58621;SDS011;44389;51.578;5.456;2023-06-14T07:58:48;14.63;;;7.63;;
58621;SDS011;44389;51.578;5.456;2023-06-14T08:01:13;20.48;;;7.82;;
58621;SDS011;44389;51.578;5.456;2023-06-14T08:03:38;17.20;;;7.38;;
58621;SDS011;44389;51.578;5.456;2023-06-14T08:06:04;18.55;;;7.35;;
58621;SDS011;44389;51.578;5.456;2023-06-14T08:08:31;17.60;;;7.65;;
58621;SDS011;44389;51.578;5.456;2023-06-14T08:10:57;17.27;;;7.47;;
58621;SDS011;44389;51.578;5.456;2023-06-14T08:13:22;15.80;;;6.85;;
58621;SDS011;44389;51.578;5.456;2023-06-14T08:15:47;23.63;;;7.00;;
58621;SDS011;44389;51.578;5.456;2023-06-14T08:18:12;15.10;;;6.53;;
58621;SDS011;44389;51.578;5.456;2023-06-14T08:20:38;14.02;;;6.70;;
58621;SDS011;44389;51.578;5.456;2023-06-14T08:23:03;19.25;;;6.72;;
58621;SDS011;44389;51.578;5.456;2023-06-14T08:25:30;21.40;;;5.68;;
58621;SDS011;44389;51.578;5.456;2023-06-14T08:27:56;15.57;;;5.80;;
58621;SDS011;44389;51.578;5.456;2023-06-14T08:30:21;13.93;;;5.47;;
58621;SDS011;44389;51.578;5.456;2023-06-14T08:32:47;14.00;;;5.30;;
58621;SDS011;44389;51.578;5.456;2023-06-14T08:35:12;11.95;;;5.70;;
58621;SDS011;44389;51.578;5.456;2023-06-14T08:37:38;16.48;;;5.75;;
58621;SDS011;44389;51.578;5.456;2023-06-14T08:40:06;13.02;;;5.72;;
58621;SDS011;44389;51.578;5.456;2023-06-14T08:42:44;12.65;;;5.57;;
58621;SDS011;44389;51.578;5.456;2023-06-14T08:45:11;11.63;;;4.85;;
58621;SDS011;44389;51.578;5.456;2023-06-14T08:47:36;11.88;;;5.30;;
58621;SDS011;44389;51.578;5.456;2023-06-14T08:50:02;12.55;;;5.35;;
58621;SDS011;44389;51.578;5.456;2023-06-14T08:54:58;12.70;;;5.10;;
58621;SDS011;44389;51.578;5.456;2023-06-14T08:57:25;11.18;;;4.40;;
58621;SDS011;44389;51.578;5.456;2023-06-14T08:59:55;13.80;;;4.40;;
58621;SDS011;44389;51.578;5.456;2023-06-14T09:02:21;13.20;;;4.60;;
58621;SDS011;44389;51.578;5.456;2023-06-14T09:04:47;13.88;;;4.20;;
58621;SDS011;44389;51.578;5.456;2023-06-14T09:07:14;8.18;;;3.90;;
58621;SDS011;44389;51.578;5.456;2023-06-14T09:09:40;15.38;;;4.32;;
58621;SDS011;44389;51.578;5.456;2023-06-14T09:12:15;9.13;;;4.50;;
58621;SDS011;44389;51.578;5.456;2023-06-14T09:14:40;15.13;;;4.32;;
58621;SDS011;44389;51.578;5.456;2023-06-14T09:17:07;12.80;;;3.60;;
58621;SDS011;44389;51.578;5.456;2023-06-14T09:19:33;8.38;;;3.17;;
58621;SDS011;44389;51.578;5.456;2023-06-14T09:21:59;5.57;;;2.45;;
58621;SDS011;44389;51.578;5.456;2023-06-14T09:24:25;5.82;;;2.40;;
58621;SDS011;44389;51.578;5.456;2023-06-14T09:26:51;9.50;;;2.63;;
58621;SDS011;44389;51.578;5.456;2023-06-14T09:29:17;5.88;;;2.53;;
58621;SDS011;44389;51.578;5.456;2023-06-14T09:31:43;6.80;;;2.58;;
58621;SDS011;44389;51.578;5.456;2023-06-14T09:34:10;6.28;;;2.65;;
58621;SDS011;44389;51.578;5.456;2023-06-14T09:36:36;7.57;;;2.47;;
58621;SDS011;44389;51.578;5.456;2023-06-14T09:39:05;4.75;;;2.13;;
58621;SDS011;44389;51.578;5.456;2023-06-14T09:41:38;5.03;;;2.30;;
58621;SDS011;44389;51.578;5.456;2023-06-14T09:44:08;8.07;;;2.13;;
58621;SDS011;44389;51.578;5.456;2023-06-14T09:46:35;6.50;;;2.55;;
58621;SDS011;44389;51.578;5.456;2023-06-14T09:49:02;5.47;;;2.33;;
58621;SDS011;44389;51.578;5.456;2023-06-14T09:51:28;7.20;;;2.40;;
58621;SDS011;44389;51.578;5.456;2023-06-14T09:54:00;7.97;;;2.70;;
58621;SDS011;44389;51.578;5.456;2023-06-14T09:56:30;6.28;;;2.63;;
58621;SDS011;44389;51.578;5.456;2023-06-14T09:58:59;7.20;;;2.50;;
58621;SDS011;44389;51.578;5.456;2023-06-14T10:01:25;7.00;;;2.60;;
58621;SDS011;44389;51.578;5.456;2023-06-14T10:03:55;7.63;;;2.90;;
58621;SDS011;44389;51.578;5.456;2023-06-14T10:06:26;5.18;;;2.65;;
58621;SDS011;44389;51.578;5.456;2023-06-14T10:08:53;9.15;;;2.75;;
58621;SDS011;44389;51.578;5.456;2023-06-14T10:11:21;7.43;;;3.10;;
58621;SDS011;44389;51.578;5.456;2023-06-14T10:13:48;7.30;;;2.90;;
58621;SDS011;44389;51.578;5.456;2023-06-14T10:16:17;6.78;;;3.00;;
58621;SDS011;44389;51.578;5.456;2023-06-14T10:18:49;8.10;;;2.97;;
58621;SDS011;44389;51.578;5.456;2023-06-14T10:24:12;5.65;;;3.10;;
58621;SDS011;44389;51.578;5.456;2023-06-14T10:26:58;6.97;;;3.10;;
58621;SDS011;44389;51.578;5.456;2023-06-14T10:29:27;5.22;;;2.75;;
58621;SDS011;44389;51.578;5.456;2023-06-14T10:31:57;6.00;;;3.10;;
58621;SDS011;44389;51.578;5.456;2023-06-14T10:34:24;7.15;;;3.30;;
58621;SDS011;44389;51.578;5.456;2023-06-14T10:37:04;12.45;;;2.92;;
58621;SDS011;44389;51.578;5.456;2023-06-14T10:39:30;6.22;;;2.75;;
58621;SDS011;44389;51.578;5.456;2023-06-14T10:41:57;7.90;;;2.85;;
58621;SDS011;44389;51.578;5.456;2023-06-14T10:46:54;9.25;;;2.97;;
58621;SDS011;44389;51.578;5.456;2023-06-14T10:49:20;8.80;;;3.00;;
58621;SDS011;44389;51.578;5.456;2023-06-14T10:52:03;9.50;;;3.22;;
58621;SDS011;44389;51.578;5.456;2023-06-14T10:54:31;10.23;;;3.10;;
58621;SDS011;44389;51.578;5.456;2023-06-14T10:56:56;11.17;;;3.00;;
58621;SDS011;44389;51.578;5.456;2023-06-14T10:59:24;9.63;;;2.60;;
58621;SDS011;44389;51.578;5.456;2023-06-14T11:04:14;6.60;;;2.80;;
58621;SDS011;44389;51.578;5.456;2023-06-14T11:06:48;5.88;;;2.78;;
58621;SDS011;44389;51.578;5.456;2023-06-14T11:12:10;6.07;;;2.42;;
58621;SDS011;44389;51.578;5.456;2023-06-14T11:14:36;9.30;;;2.63;;
58621;SDS011;44389;51.578;5.456;2023-06-14T11:17:03;9.40;;;2.78;;
58621;SDS011;44389;51.578;5.456;2023-06-14T11:19:29;16.60;;;2.77;;
58621;SDS011;44389;51.578;5.456;2023-06-14T11:21:54;4.87;;;2.60;;
58621;SDS011;44389;51.578;5.456;2023-06-14T11:24:19;8.50;;;2.33;;
58621;SDS011;44389;51.578;5.456;2023-06-14T11:26:46;4.17;;;2.13;;
58621;SDS011;44389;51.578;5.456;2023-06-14T11:29:12;8.50;;;3.00;;
58621;SDS011;44389;51.578;5.456;2023-06-14T11:31:43;6.97;;;2.38;;
58621;SDS011;44389;51.578;5.456;2023-06-14T11:34:09;7.45;;;2.83;;
58621;SDS011;44389;51.578;5.456;2023-06-14T11:36:35;7.40;;;2.57;;
58621;SDS011;44389;51.578;5.456;2023-06-14T11:39:01;4.77;;;2.37;;
58621;SDS011;44389;51.578;5.456;2023-06-14T11:41:41;5.38;;;2.50;;
58621;SDS011;44389;51.578;5.456;2023-06-14T11:44:08;8.18;;;2.63;;
58621;SDS011;44389;51.578;5.456;2023-06-14T11:46:34;7.00;;;2.75;;
58621;SDS011;44389;51.578;5.456;2023-06-14T11:49:00;6.30;;;2.97;;
58621;SDS011;44389;51.578;5.456;2023-06-14T11:51:28;7.97;;;3.05;;
58621;SDS011;44389;51.578;5.456;2023-06-14T11:53:54;8.70;;;2.58;;
58621;SDS011;44389;51.578;5.456;2023-06-14T11:56:20;8.10;;;2.67;;
58621;SDS011;44389;51.578;5.456;2023-06-14T11:58:46;7.17;;;2.60;;
58621;SDS011;44389;51.578;5.456;2023-06-14T12:01:14;5.73;;;2.53;;
58621;SDS011;44389;51.578;5.456;2023-06-14T12:03:46;7.00;;;2.70;;
58621;SDS011;44389;51.578;5.456;2023-06-14T12:06:13;5.78;;;2.72;;
58621;SDS011;44389;51.578;5.456;2023-06-14T12:08:38;7.23;;;2.40;;
58621;SDS011;44389;51.578;5.456;2023-06-14T12:11:05;7.40;;;2.50;;
58621;SDS011;44389;51.578;5.456;2023-06-14T12:13:33;8.48;;;2.42;;
58621;SDS011;44389;51.578;5.456;2023-06-14T12:15:59;7.93;;;2.65;;
58621;SDS011;44389;51.578;5.456;2023-06-14T12:18:32;8.63;;;3.33;;
58621;SDS011;44389;51.578;5.456;2023-06-14T12:20:59;7.25;;;2.17;;
58621;SDS011;44389;51.578;5.456;2023-06-14T12:23:38;7.13;;;2.88;;
58621;SDS011;44389;51.578;5.456;2023-06-14T12:26:14;7.78;;;2.85;;
58621;SDS011;44389;51.578;5.456;2023-06-14T12:28:46;5.28;;;2.70;;
58621;SDS011;44389;51.578;5.456;2023-06-14T12:31:13;9.38;;;3.10;;
58621;SDS011;44389;51.578;5.456;2023-06-14T12:33:40;9.07;;;3.10;;
58621;SDS011;44389;51.578;5.456;2023-06-14T12:36:09;11.13;;;3.00;;
58621;SDS011;44389;51.578;5.456;2023-06-14T12:38:35;6.38;;;2.80;;
58621;SDS011;44389;51.578;5.456;2023-06-14T12:41:01;10.15;;;2.80;;
58621;SDS011;44389;51.578;5.456;2023-06-14T12:43:27;8.63;;;2.70;;
58621;SDS011;44389;51.578;5.456;2023-06-14T12:45:53;5.27;;;2.70;;
58621;SDS011;44389;51.578;5.456;2023-06-14T12:48:18;8.57;;;2.87;;
58621;SDS011;44389;51.578;5.456;2023-06-14T12:50:44;5.77;;;2.67;;
58621;SDS011;44389;51.578;5.456;2023-06-14T12:53:09;7.00;;;2.50;;
58621;SDS011;44389;51.578;5.456;2023-06-14T12:55:35;6.95;;;2.30;;
58621;SDS011;44389;51.578;5.456;2023-06-14T12:58:01;5.67;;;2.50;;
58621;SDS011;44389;51.578;5.456;2023-06-14T13:00:26;6.43;;;2.53;;
58621;SDS011;44389;51.578;5.456;2023-06-14T13:02:51;37.00;;;4.57;;
58621;SDS011;44389;51.578;5.456;2023-06-14T13:05:17;20.33;;;2.87;;
58621;SDS011;44389;51.578;5.456;2023-06-14T13:07:43;8.13;;;2.78;;
58621;SDS011;44389;51.578;5.456;2023-06-14T13:10:09;6.57;;;2.63;;
58621;SDS011;44389;51.578;5.456;2023-06-14T13:12:35;10.87;;;2.47;;
58621;SDS011;44389;51.578;5.456;2023-06-14T13:15:00;5.63;;;2.30;;
58621;SDS011;44389;51.578;5.456;2023-06-14T13:17:26;8.60;;;3.00;;
58621;SDS011;44389;51.578;5.456;2023-06-14T13:19:51;8.73;;;2.50;;
58621;SDS011;44389;51.578;5.456;2023-06-14T13:22:16;6.37;;;2.30;;
58621;SDS011;44389;51.578;5.456;2023-06-14T13:24:42;5.97;;;2.47;;
58621;SDS011;44389;51.578;5.456;2023-06-14T13:27:07;8.43;;;2.57;;
58621;SDS011;44389;51.578;5.456;2023-06-14T13:29:32;7.60;;;2.47;;
58621;SDS011;44389;51.578;5.456;2023-06-14T13:32:00;9.75;;;2.30;;
58621;SDS011;44389;51.578;5.456;2023-06-14T13:34:26;9.13;;;2.30;;
58621;SDS011;44389;51.578;5.456;2023-06-14T13:36:51;6.10;;;2.63;;
58621;SDS011;44389;51.578;5.456;2023-06-14T13:39:16;7.60;;;2.57;;
58621;SDS011;44389;51.578;5.456;2023-06-14T13:41:42;8.40;;;2.73;;
58621;SDS011;44389;51.578;5.456;2023-06-14T13:44:07;6.43;;;2.60;;
58621;SDS011;44389;51.578;5.456;2023-06-14T13:46:33;8.13;;;2.87;;
58621;SDS011;44389;51.578;5.456;2023-06-14T13:48:58;7.43;;;2.90;;
58621;SDS011;44389;51.578;5.456;2023-06-14T13:53:52;6.75;;;2.78;;
58621;SDS011;44389;51.578;5.456;2023-06-14T13:56:18;4.65;;;2.22;;
58621;SDS011;44389;51.578;5.456;2023-06-14T13:58:44;6.93;;;2.50;;
58621;SDS011;44389;51.578;5.456;2023-06-14T14:01:09;7.40;;;2.33;;
58621;SDS011;44389;51.578;5.456;2023-06-14T14:03:36;8.55;;;2.30;;
58621;SDS011;44389;51.578;5.456;2023-06-14T14:06:01;6.13;;;2.20;;
58621;SDS011;44389;51.578;5.456;2023-06-14T14:08:28;9.15;;;2.13;;
58621;SDS011;44389;51.578;5.456;2023-06-14T14:10:53;7.30;;;2.30;;
58621;SDS011;44389;51.578;5.456;2023-06-14T14:13:19;11.40;;;2.45;;
58621;SDS011;44389;51.578;5.456;2023-06-14T14:15:45;7.15;;;2.40;;
58621;SDS011;44389;51.578;5.456;2023-06-14T14:18:11;4.53;;;1.73;;
58621;SDS011;44389;51.578;5.456;2023-06-14T14:20:36;5.80;;;1.80;;
58621;SDS011;44389;51.578;5.456;2023-06-14T14:23:02;5.07;;;1.90;;
58621;SDS011;44389;51.578;5.456;2023-06-14T14:25:27;4.47;;;1.83;;
58621;SDS011;44389;51.578;5.456;2023-06-14T14:27:53;4.30;;;1.83;;
58621;SDS011;44389;51.578;5.456;2023-06-14T14:30:18;4.60;;;1.77;;
58621;SDS011;44389;51.578;5.456;2023-06-14T14:32:48;4.78;;;1.83;;
58621;SDS011;44389;51.578;5.456;2023-06-14T14:35:14;5.73;;;1.70;;
58621;SDS011;44389;51.578;5.456;2023-06-14T14:37:39;4.30;;;1.70;;
58621;SDS011;44389;51.578;5.456;2023-06-14T14:40:04;2.80;;;1.70;;
58621;SDS011;44389;51.578;5.456;2023-06-14T14:42:31;4.25;;;1.60;;
58621;SDS011;44389;51.578;5.456;2023-06-14T14:44:56;3.53;;;1.90;;
58621;SDS011;44389;51.578;5.456;2023-06-14T14:47:21;9.30;;;1.73;;